sensor_id;sensor_type;location;lat;lon;timestamp;temperature;humidity
19968;DHT22;10145;49.152;9.282;2023-02-28T00:00:10;-1.10;99.90
19968;DHT22;10145;49.152;9.282;2023-02-28T00:02:40;-1.10;99.90
19968;DHT22;10145;49.152;9.282;2023-02-28T00:05:07;-1.10;99.90
19968;DHT22;10145;49.152;9.282;2023-02-28T00:07:32;-1.10;99.90
19968;DHT22;10145;49.152;9.282;2023-02-28T00:09:58;-1.10;99.90
19968;DHT22;10145;49.152;9.282;2023-02-28T00:12:24;-1.30;99.90
19968;DHT22;10145;49.152;9.282;2023-02-28T00:14:50;-1.40;99.90
19968;DHT22;10145;49.152;9.282;2023-02-28T00:17:16;-1.50;99.90
19968;DHT22;10145;49.152;9.282;2023-02-28T00:19:47;-1.50;99.90
19968;DHT22;10145;49.152;9.282;2023-02-28T00:22:13;-1.60;99.90
19968;DHT22;10145;49.152;9.282;2023-02-28T00:24:38;-1.50;99.90
19968;DHT22;10145;49.152;9.282;2023-02-28T00:27:04;-1.40;99.90
19968;DHT22;10145;49.152;9.282;2023-02-28T00:29:29;-1.50;99.90
19968;DHT22;10145;49.152;9.282;2023-02-28T00:31:55;-1.50;99.90
19968;DHT22;10145;49.152;9.282;2023-02-28T00:34:20;-1.40;99.90
19968;DHT22;10145;49.152;9.282;2023-02-28T00:36:46;-1.40;99.90
19968;DHT22;10145;49.152;9.282;2023-02-28T00:39:14;-1.30;99.90
19968;DHT22;10145;49.152;9.282;2023-02-28T00:41:40;-1.30;99.90
19968;DHT22;10145;49.152;9.282;2023-02-28T00:44:05;-1.30;99.90
19968;DHT22;10145;49.152;9.282;2023-02-28T00:46:31;-1.40;99.90
19968;DHT22;10145;49.152;9.282;2023-02-28T00:48:56;-1.40;99.90
19968;DHT22;10145;49.152;9.282;2023-02-28T00:51:22;-1.40;99.90
19968;DHT22;10145;49.152;9.282;2023-02-28T00:53:47;-1.40;99.90
19968;DHT22;10145;49.152;9.282;2023-02-28T00:56:13;-1.50;99.90
19968;DHT22;10145;49.152;9.282;2023-02-28T00:58:39;-1.50;99.90
19968;DHT22;10145;49.152;9.282;2023-02-28T01:01:04;-1.50;99.90
19968;DHT22;10145;49.152;9.282;2023-02-28T01:03:30;-1.50;99.90
19968;DHT22;10145;49.152;9.282;2023-02-28T01:05:55;-1.60;99.90
19968;DHT22;10145;49.152;9.282;2023-02-28T01:08:21;-1.70;99.90
19968;DHT22;10145;49.152;9.282;2023-02-28T01:10:47;-1.70;99.90
19968;DHT22;10145;49.152;9.282;2023-02-28T01:13:13;-1.80;99.90
19968;DHT22;10145;49.152;9.282;2023-02-28T01:15:43;-1.80;99.90
19968;DHT22;10145;49.152;9.282;2023-02-28T01:18:09;-1.80;99.90
19968;DHT22;10145;49.152;9.282;2023-02-28T01:20:37;-1.80;99.90
19968;DHT22;10145;49.152;9.282;2023-02-28T01:23:02;-1.90;99.90
19968;DHT22;10145;49.152;9.282;2023-02-28T01:25:28;-1.90;99.90
19968;DHT22;10145;49.152;9.282;2023-02-28T01:27:53;-2.00;99.90
19968;DHT22;10145;49.152;9.282;2023-02-28T01:30:19;-2.00;99.90
19968;DHT22;10145;49.152;9.282;2023-02-28T01:32:45;-2.10;99.90
19968;DHT22;10145;49.152;9.282;2023-02-28T01:35:10;-2.00;99.90
19968;DHT22;10145;49.152;9.282;2023-02-28T01:37:36;-2.10;99.90
19968;DHT22;10145;49.152;9.282;2023-02-28T01:40:02;-2.10;99.90
19968;DHT22;10145;49.152;9.282;2023-02-28T01:42:28;-2.30;99.90
19968;DHT22;10145;49.152;9.282;2023-02-28T01:44:55;-2.30;99.90
19968;DHT22;10145;49.152;9.282;2023-02-28T01:47:22;-2.40;99.90
19968;DHT22;10145;49.152;9.282;2023-02-28T01:49:50;-2.40;99.90
19968;DHT22;10145;49.152;9.282;2023-02-28T01:52:17;-2.40;99.90
19968;DHT22;10145;49.152;9.282;2023-02-28T01:54:46;-2.60;99.90
19968;DHT22;10145;49.152;9.282;2023-02-28T01:57:16;-2.50;99.90
19968;DHT22;10145;49.152;9.282;2023-02-28T01:59:47;-2.40;99.90
19968;DHT22;10145;49.152;9.282;2023-02-28T02:02:17;-2.40;99.90
19968;DHT22;10145;49.152;9.282;2023-02-28T02:04:53;-2.40;99.90
19968;DHT22;10145;49.152;9.282;2023-02-28T02:07:20;-2.50;99.90
19968;DHT22;10145;49.152;9.282;2023-02-28T02:09:46;-2.50;99.90
19968;DHT22;10145;49.152;9.282;2023-02-28T02:12:51;-2.50;99.90
19968;DHT22;10145;49.152;9.282;2023-02-28T02:15:26;-2.60;99.90
19968;DHT22;10145;49.152;9.282;2023-02-28T02:17:57;-2.60;99.90
19968;DHT22;10145;49.152;9.282;2023-02-28T02:21:08;-2.60;99.90
19968;DHT22;10145;49.152;9.282;2023-02-28T02:29:35;-3.00;99.90
19968;DHT22;10145;49.152;9.282;2023-02-28T02:35:09;-2.90;99.90
19968;DHT22;10145;49.152;9.282;2023-02-28T02:37:53;-2.80;99.90
19968;DHT22;10145;49.152;9.282;2023-02-28T02:40:27;-2.90;99.90
19968;DHT22;10145;49.152;9.282;2023-02-28T02:43:15;-3.00;99.90
19968;DHT22;10145;49.152;9.282;2023-02-28T02:45:46;-3.00;99.90
19968;DHT22;10145;49.152;9.282;2023-02-28T02:48:16;-3.00;99.90
19968;DHT22;10145;49.152;9.282;2023-02-28T02:50:46;-3.10;99.90
19968;DHT22;10145;49.152;9.282;2023-02-28T02:53:15;-3.10;99.90
19968;DHT22;10145;49.152;9.282;2023-02-28T02:55:44;-3.10;99.90
19968;DHT22;10145;49.152;9.282;2023-02-28T02:58:15;-2.90;99.90
19968;DHT22;10145;49.152;9.282;2023-02-28T03:00:46;-2.90;99.90
19968;DHT22;10145;49.152;9.282;2023-02-28T03:03:14;-2.70;99.90
19968;DHT22;10145;49.152;9.282;2023-02-28T03:05:50;-2.60;99.90
19968;DHT22;10145;49.152;9.282;2023-02-28T03:08:16;-2.60;99.90
19968;DHT22;10145;49.152;9.282;2023-02-28T03:10:45;-2.60;99.90
19968;DHT22;10145;49.152;9.282;2023-02-28T03:21:37;-2.50;99.90
19968;DHT22;10145;49.152;9.282;2023-02-28T03:24:19;-2.40;99.90
19968;DHT22;10145;49.152;9.282;2023-02-28T03:26:54;-2.30;99.90
19968;DHT22;10145;49.152;9.282;2023-02-28T03:30:09;-2.20;99.90
19968;DHT22;10145;49.152;9.282;2023-02-28T03:32:23;-2.20;99.90
19968;DHT22;10145;49.152;9.282;2023-02-28T03:34:56;-2.10;99.90
19968;DHT22;10145;49.152;9.282;2023-02-28T03:37:25;-1.90;99.90
19968;DHT22;10145;49.152;9.282;2023-02-28T03:40:03;-1.90;99.90
19968;DHT22;10145;49.152;9.282;2023-02-28T03:42:34;-1.80;99.90
19968;DHT22;10145;49.152;9.282;2023-02-28T03:45:09;-1.70;99.90
19968;DHT22;10145;49.152;9.282;2023-02-28T03:50:29;-1.70;99.90
19968;DHT22;10145;49.152;9.282;2023-02-28T03:55:34;-1.70;99.90
19968;DHT22;10145;49.152;9.282;2023-02-28T03:58:20;-1.70;99.90
19968;DHT22;10145;49.152;9.282;2023-02-28T04:00:50;-1.50;99.90
19968;DHT22;10145;49.152;9.282;2023-02-28T04:03:19;-1.50;99.90
19968;DHT22;10145;49.152;9.282;2023-02-28T04:05:54;-1.50;99.90
19968;DHT22;10145;49.152;9.282;2023-02-28T04:08:21;-1.50;99.90
19968;DHT22;10145;49.152;9.282;2023-02-28T04:10:53;-1.50;99.90
19968;DHT22;10145;49.152;9.282;2023-02-28T04:13:20;-1.40;99.90
19968;DHT22;10145;49.152;9.282;2023-02-28T04:15:45;-1.40;99.90
19968;DHT22;10145;49.152;9.282;2023-02-28T04:18:11;-1.30;99.90
19968;DHT22;10145;49.152;9.282;2023-02-28T04:20:36;-1.30;99.90
19968;DHT22;10145;49.152;9.282;2023-02-28T04:23:02;-1.20;99.90
19968;DHT22;10145;49.152;9.282;2023-02-28T04:25:27;-1.20;99.90
19968;DHT22;10145;49.152;9.282;2023-02-28T04:27:53;-1.20;99.90
19968;DHT22;10145;49.152;9.282;2023-02-28T04:30:18;-1.10;99.90
19968;DHT22;10145;49.152;9.282;2023-02-28T04:32:44;-1.20;99.90
19968;DHT22;10145;49.152;9.282;2023-02-28T04:35:10;-1.20;99.90
19968;DHT22;10145;49.152;9.282;2023-02-28T04:37:35;-1.10;99.90
19968;DHT22;10145;49.152;9.282;2023-02-28T04:40:02;-1.10;99.90
19968;DHT22;10145;49.152;9.282;2023-02-28T04:42:28;-1.00;99.90
19968;DHT22;10145;49.152;9.282;2023-02-28T04:45:01;-1.00;99.90
19968;DHT22;10145;49.152;9.282;2023-02-28T04:47:26;-1.00;99.90
19968;DHT22;10145;49.152;9.282;2023-02-28T04:49:52;-1.00;99.90
19968;DHT22;10145;49.152;9.282;2023-02-28T04:52:17;-1.00;99.90
19968;DHT22;10145;49.152;9.282;2023-02-28T04:54:43;-1.00;99.90
19968;DHT22;10145;49.152;9.282;2023-02-28T04:57:08;-0.90;99.90
19968;DHT22;10145;49.152;9.282;2023-02-28T04:59:34;-0.90;99.90
19968;DHT22;10145;49.152;9.282;2023-02-28T05:01:59;-1.10;99.90
19968;DHT22;10145;49.152;9.282;2023-02-28T05:04:25;-0.90;99.90
19968;DHT22;10145;49.152;9.282;2023-02-28T05:06:50;-0.80;99.90
19968;DHT22;10145;49.152;9.282;2023-02-28T05:09:16;-0.80;99.90
19968;DHT22;10145;49.152;9.282;2023-02-28T05:11:42;-0.80;99.90
19968;DHT22;10145;49.152;9.282;2023-02-28T05:14:11;-0.80;99.90
19968;DHT22;10145;49.152;9.282;2023-02-28T05:16:37;-0.80;99.90
19968;DHT22;10145;49.152;9.282;2023-02-28T05:19:03;-0.80;99.90
19968;DHT22;10145;49.152;9.282;2023-02-28T05:23:54;-0.80;99.90
19968;DHT22;10145;49.152;9.282;2023-02-28T05:26:20;-0.80;99.90
19968;DHT22;10145;49.152;9.282;2023-02-28T05:28:46;-0.80;99.90
19968;DHT22;10145;49.152;9.282;2023-02-28T05:31:12;-0.80;99.90
19968;DHT22;10145;49.152;9.282;2023-02-28T05:33:38;-0.80;99.90
19968;DHT22;10145;49.152;9.282;2023-02-28T05:36:05;-0.80;99.90
19968;DHT22;10145;49.152;9.282;2023-02-28T05:38:31;-0.80;99.90
19968;DHT22;10145;49.152;9.282;2023-02-28T05:40:56;-0.80;99.90
19968;DHT22;10145;49.152;9.282;2023-02-28T05:43:22;-0.80;99.90
19968;DHT22;10145;49.152;9.282;2023-02-28T05:45:48;-0.80;99.90
19968;DHT22;10145;49.152;9.282;2023-02-28T05:48:13;-0.80;99.90
19968;DHT22;10145;49.152;9.282;2023-02-28T05:50:39;-0.80;99.90
19968;DHT22;10145;49.152;9.282;2023-02-28T05:53:05;-0.80;99.90
19968;DHT22;10145;49.152;9.282;2023-02-28T05:55:30;-0.90;99.90
19968;DHT22;10145;49.152;9.282;2023-02-28T05:57:56;-0.90;99.90
19968;DHT22;10145;49.152;9.282;2023-02-28T06:00:21;-0.90;99.90
19968;DHT22;10145;49.152;9.282;2023-02-28T06:02:47;-0.90;99.90
19968;DHT22;10145;49.152;9.282;2023-02-28T06:05:15;-0.90;99.90
19968;DHT22;10145;49.152;9.282;2023-02-28T06:07:41;-0.90;99.90
19968;DHT22;10145;49.152;9.282;2023-02-28T06:10:08;-1.00;99.90
19968;DHT22;10145;49.152;9.282;2023-02-28T06:12:33;-1.00;99.90
19968;DHT22;10145;49.152;9.282;2023-02-28T06:14:59;-0.90;99.90
19968;DHT22;10145;49.152;9.282;2023-02-28T06:17:24;-1.10;99.90
19968;DHT22;10145;49.152;9.282;2023-02-28T06:19:50;-1.20;99.90
19968;DHT22;10145;49.152;9.282;2023-02-28T06:22:15;-1.20;99.90
19968;DHT22;10145;49.152;9.282;2023-02-28T06:24:41;-1.20;99.90
19968;DHT22;10145;49.152;9.282;2023-02-28T06:27:06;-1.20;99.90
19968;DHT22;10145;49.152;9.282;2023-02-28T06:29:34;-1.30;99.90
19968;DHT22;10145;49.152;9.282;2023-02-28T06:31:59;-1.30;99.90
19968;DHT22;10145;49.152;9.282;2023-02-28T06:34:25;-1.40;99.90
19968;DHT22;10145;49.152;9.282;2023-02-28T06:36:51;-1.40;99.90
19968;DHT22;10145;49.152;9.282;2023-02-28T06:39:17;-1.40;99.90
19968;DHT22;10145;49.152;9.282;2023-02-28T06:41:43;-1.50;99.90
19968;DHT22;10145;49.152;9.282;2023-02-28T06:44:17;-1.50;99.90
19968;DHT22;10145;49.152;9.282;2023-02-28T06:46:44;-1.50;99.90
19968;DHT22;10145;49.152;9.282;2023-02-28T06:49:10;-1.50;99.90
19968;DHT22;10145;49.152;9.282;2023-02-28T06:51:37;-1.50;99.90
19968;DHT22;10145;49.152;9.282;2023-02-28T06:54:03;-1.60;99.90
19968;DHT22;10145;49.152;9.282;2023-02-28T06:56:28;-1.50;99.90
19968;DHT22;10145;49.152;9.282;2023-02-28T06:58:54;-1.50;99.90
19968;DHT22;10145;49.152;9.282;2023-02-28T07:01:20;-1.50;99.90
19968;DHT22;10145;49.152;9.282;2023-02-28T07:03:48;-1.40;99.90
19968;DHT22;10145;49.152;9.282;2023-02-28T07:06:17;-1.40;99.90
19968;DHT22;10145;49.152;9.282;2023-02-28T07:08:43;-1.40;99.90
19968;DHT22;10145;49.152;9.282;2023-02-28T07:11:09;-1.40;99.90
19968;DHT22;10145;49.152;9.282;2023-02-28T07:13:36;-1.40;99.90
19968;DHT22;10145;49.152;9.282;2023-02-28T07:16:04;-1.30;99.90
19968;DHT22;10145;49.152;9.282;2023-02-28T07:18:30;-1.30;99.90
19968;DHT22;10145;49.152;9.282;2023-02-28T07:20:56;-1.20;99.90
19968;DHT22;10145;49.152;9.282;2023-02-28T07:23:22;-1.20;99.90
19968;DHT22;10145;49.152;9.282;2023-02-28T07:25:48;-1.10;99.90
19968;DHT22;10145;49.152;9.282;2023-02-28T07:28:14;-1.10;99.90
19968;DHT22;10145;49.152;9.282;2023-02-28T07:30:40;-1.00;99.90
19968;DHT22;10145;49.152;9.282;2023-02-28T07:33:06;-1.00;99.90
19968;DHT22;10145;49.152;9.282;2023-02-28T07:35:32;-0.90;99.90
19968;DHT22;10145;49.152;9.282;2023-02-28T07:37:58;-0.80;99.90
19968;DHT22;10145;49.152;9.282;2023-02-28T07:40:24;-0.80;99.90
19968;DHT22;10145;49.152;9.282;2023-02-28T07:42:50;-0.80;99.90
19968;DHT22;10145;49.152;9.282;2023-02-28T07:45:16;-0.70;99.90
19968;DHT22;10145;49.152;9.282;2023-02-28T07:47:43;-0.60;99.90
19968;DHT22;10145;49.152;9.282;2023-02-28T07:50:11;-0.60;99.90
19968;DHT22;10145;49.152;9.282;2023-02-28T07:52:37;-0.60;99.90
19968;DHT22;10145;49.152;9.282;2023-02-28T07:55:04;-0.50;99.90
19968;DHT22;10145;49.152;9.282;2023-02-28T07:57:30;-0.70;99.90
19968;DHT22;10145;49.152;9.282;2023-02-28T07:59:57;-0.40;99.90
19968;DHT22;10145;49.152;9.282;2023-02-28T08:02:22;-0.40;99.90
19968;DHT22;10145;49.152;9.282;2023-02-28T08:04:48;-0.40;99.90
19968;DHT22;10145;49.152;9.282;2023-02-28T08:07:15;-0.30;99.90
19968;DHT22;10145;49.152;9.282;2023-02-28T08:09:41;-0.20;99.90
19968;DHT22;10145;49.152;9.282;2023-02-28T08:12:07;-0.10;99.90
19968;DHT22;10145;49.152;9.282;2023-02-28T08:14:33;0.00;99.90
19968;DHT22;10145;49.152;9.282;2023-02-28T08:16:59;0.00;99.90
19968;DHT22;10145;49.152;9.282;2023-02-28T08:19:24;0.10;99.90
19968;DHT22;10145;49.152;9.282;2023-02-28T08:21:50;0.30;99.90
19968;DHT22;10145;49.152;9.282;2023-02-28T08:24:15;0.40;99.90
19968;DHT22;10145;49.152;9.282;2023-02-28T08:26:41;0.40;99.90
19968;DHT22;10145;49.152;9.282;2023-02-28T08:29:07;0.40;99.90
19968;DHT22;10145;49.152;9.282;2023-02-28T08:31:32;0.50;99.90
19968;DHT22;10145;49.152;9.282;2023-02-28T08:33:58;0.50;99.90
19968;DHT22;10145;49.152;9.282;2023-02-28T08:36:25;0.50;99.90
19968;DHT22;10145;49.152;9.282;2023-02-28T08:38:51;0.60;99.90
19968;DHT22;10145;49.152;9.282;2023-02-28T08:41:17;0.60;99.90
19968;DHT22;10145;49.152;9.282;2023-02-28T08:43:43;0.70;99.90
19968;DHT22;10145;49.152;9.282;2023-02-28T08:46:12;0.80;99.90
19968;DHT22;10145;49.152;9.282;2023-02-28T08:48:37;0.90;99.90
19968;DHT22;10145;49.152;9.282;2023-02-28T08:51:08;1.00;99.90
19968;DHT22;10145;49.152;9.282;2023-02-28T08:53:38;1.10;99.90
19968;DHT22;10145;49.152;9.282;2023-02-28T08:56:06;1.20;99.90
19968;DHT22;10145;49.152;9.282;2023-02-28T08:58:32;1.30;99.90
19968;DHT22;10145;49.152;9.282;2023-02-28T09:00:59;1.40;99.90
19968;DHT22;10145;49.152;9.282;2023-02-28T09:03:25;1.40;99.90
19968;DHT22;10145;49.152;9.282;2023-02-28T09:05:56;1.40;99.90
19968;DHT22;10145;49.152;9.282;2023-02-28T09:08:23;1.40;99.90
19968;DHT22;10145;49.152;9.282;2023-02-28T09:10:49;1.60;99.90
19968;DHT22;10145;49.152;9.282;2023-02-28T09:13:15;1.70;99.90
19968;DHT22;10145;49.152;9.282;2023-02-28T09:15:40;1.80;99.90
19968;DHT22;10145;49.152;9.282;2023-02-28T09:18:06;1.90;99.90
19968;DHT22;10145;49.152;9.282;2023-02-28T09:20:31;2.10;99.90
19968;DHT22;10145;49.152;9.282;2023-02-28T09:22:57;2.20;99.90
19968;DHT22;10145;49.152;9.282;2023-02-28T09:25:22;2.30;99.90
19968;DHT22;10145;49.152;9.282;2023-02-28T09:27:48;2.40;99.90
19968;DHT22;10145;49.152;9.282;2023-02-28T09:30:14;2.50;99.90
19968;DHT22;10145;49.152;9.282;2023-02-28T09:32:39;2.60;99.90
19968;DHT22;10145;49.152;9.282;2023-02-28T09:35:05;2.50;99.90
19968;DHT22;10145;49.152;9.282;2023-02-28T09:37:31;2.40;99.90
19968;DHT22;10145;49.152;9.282;2023-02-28T09:39:57;2.50;99.90
19968;DHT22;10145;49.152;9.282;2023-02-28T09:42:33;2.60;99.90
19968;DHT22;10145;49.152;9.282;2023-02-28T09:45:02;2.60;99.90
19968;DHT22;10145;49.152;9.282;2023-02-28T09:47:40;2.60;99.90
19968;DHT22;10145;49.152;9.282;2023-02-28T09:50:36;2.50;99.90
19968;DHT22;10145;49.152;9.282;2023-02-28T09:53:13;2.60;99.90
19968;DHT22;10145;49.152;9.282;2023-02-28T09:55:46;2.60;99.90
19968;DHT22;10145;49.152;9.282;2023-02-28T09:58:41;2.50;99.90
19968;DHT22;10145;49.152;9.282;2023-02-28T10:03:59;2.90;99.90
19968;DHT22;10145;49.152;9.282;2023-02-28T10:06:29;3.10;99.90
19968;DHT22;10145;49.152;9.282;2023-02-28T10:09:03;3.40;99.90
19968;DHT22;10145;49.152;9.282;2023-02-28T10:11:32;3.50;99.60
19968;DHT22;10145;49.152;9.282;2023-02-28T10:14:07;3.50;99.30
19968;DHT22;10145;49.152;9.282;2023-02-28T10:16:52;3.30;99.20
19968;DHT22;10145;49.152;9.282;2023-02-28T10:22:20;3.20;99.70
19968;DHT22;10145;49.152;9.282;2023-02-28T10:24:50;3.20;99.60
19968;DHT22;10145;49.152;9.282;2023-02-28T10:27:27;3.20;99.50
19968;DHT22;10145;49.152;9.282;2023-02-28T10:29:56;3.20;99.20
19968;DHT22;10145;49.152;9.282;2023-02-28T10:32:33;3.20;99.80
19968;DHT22;10145;49.152;9.282;2023-02-28T10:37:27;3.40;99.70
19968;DHT22;10145;49.152;9.282;2023-02-28T10:39:53;3.80;99.10
19968;DHT22;10145;49.152;9.282;2023-02-28T10:42:30;3.80;98.30
19968;DHT22;10145;49.152;9.282;2023-02-28T10:45:07;3.90;98.30
19968;DHT22;10145;49.152;9.282;2023-02-28T10:47:39;4.00;98.20
19968;DHT22;10145;49.152;9.282;2023-02-28T10:50:27;4.10;97.70
19968;DHT22;10145;49.152;9.282;2023-02-28T10:52:54;4.00;97.80
19968;DHT22;10145;49.152;9.282;2023-02-28T10:55:25;4.10;97.80
19968;DHT22;10145;49.152;9.282;2023-02-28T10:57:51;4.00;97.60
19968;DHT22;10145;49.152;9.282;2023-02-28T11:02:43;4.00;97.90
19968;DHT22;10145;49.152;9.282;2023-02-28T11:05:33;4.40;97.30
19968;DHT22;10145;49.152;9.282;2023-02-28T11:08:15;4.60;96.80
19968;DHT22;10145;49.152;9.282;2023-02-28T11:10:46;4.30;97.20
19968;DHT22;10145;49.152;9.282;2023-02-28T11:13:17;4.50;97.20
19968;DHT22;10145;49.152;9.282;2023-02-28T11:15:53;4.70;96.60
19968;DHT22;10145;49.152;9.282;2023-02-28T11:18:46;4.70;96.90
19968;DHT22;10145;49.152;9.282;2023-02-28T11:21:34;4.70;96.90
19968;DHT22;10145;49.152;9.282;2023-02-28T11:24:16;4.90;96.30
19968;DHT22;10145;49.152;9.282;2023-02-28T11:26:48;4.80;96.60
19968;DHT22;10145;49.152;9.282;2023-02-28T11:29:31;5.00;96.60
19968;DHT22;10145;49.152;9.282;2023-02-28T11:34:38;4.90;96.60
19968;DHT22;10145;49.152;9.282;2023-02-28T11:37:08;5.10;96.30
19968;DHT22;10145;49.152;9.282;2023-02-28T11:39:36;5.20;96.30
19968;DHT22;10145;49.152;9.282;2023-02-28T11:47:42;5.30;95.90
19968;DHT22;10145;49.152;9.282;2023-02-28T11:55:25;5.60;95.30
19968;DHT22;10145;49.152;9.282;2023-02-28T12:06:40;6.00;93.70
19968;DHT22;10145;49.152;9.282;2023-02-28T12:14:47;6.90;93.10
19968;DHT22;10145;49.152;9.282;2023-02-28T12:28:46;6.80;92.50
19968;DHT22;10145;49.152;9.282;2023-02-28T12:31:33;6.90;92.70
19968;DHT22;10145;49.152;9.282;2023-02-28T12:34:04;6.90;92.50
19968;DHT22;10145;49.152;9.282;2023-02-28T12:36:33;7.00;92.50
19968;DHT22;10145;49.152;9.282;2023-02-28T12:39:11;6.80;91.90
19968;DHT22;10145;49.152;9.282;2023-02-28T12:42:00;6.80;91.60
19968;DHT22;10145;49.152;9.282;2023-02-28T12:44:35;6.60;92.20
19968;DHT22;10145;49.152;9.282;2023-02-28T12:47:05;6.90;92.40
19968;DHT22;10145;49.152;9.282;2023-02-28T12:49:39;7.20;92.40
19968;DHT22;10145;49.152;9.282;2023-02-28T12:52:06;7.40;91.80
19968;DHT22;10145;49.152;9.282;2023-02-28T12:57:08;7.50;91.70
19968;DHT22;10145;49.152;9.282;2023-02-28T13:08:10;7.10;91.90
19968;DHT22;10145;49.152;9.282;2023-02-28T13:10:45;7.60;91.50
19968;DHT22;10145;49.152;9.282;2023-02-28T13:13:16;7.50;90.70
19968;DHT22;10145;49.152;9.282;2023-02-28T13:16:07;7.30;90.70
19968;DHT22;10145;49.152;9.282;2023-02-28T13:18:46;7.10;91.40
19968;DHT22;10145;49.152;9.282;2023-02-28T13:21:27;7.30;91.60
19968;DHT22;10145;49.152;9.282;2023-02-28T13:34:32;7.10;91.10
19968;DHT22;10145;49.152;9.282;2023-02-28T13:40:06;7.20;91.30
19968;DHT22;10145;49.152;9.282;2023-02-28T13:42:36;7.40;90.80
19968;DHT22;10145;49.152;9.282;2023-02-28T13:47:51;7.10;91.30
19968;DHT22;10145;49.152;9.282;2023-02-28T13:53:02;6.60;91.20
19968;DHT22;10145;49.152;9.282;2023-02-28T13:55:49;6.60;91.70
19968;DHT22;10145;49.152;9.282;2023-02-28T13:58:32;7.00;91.10
19968;DHT22;10145;49.152;9.282;2023-02-28T14:01:24;7.20;91.50
19968;DHT22;10145;49.152;9.282;2023-02-28T14:05:01;7.00;91.00
19968;DHT22;10145;49.152;9.282;2023-02-28T14:06:55;7.00;90.80
19968;DHT22;10145;49.152;9.282;2023-02-28T14:09:30;7.10;91.30
19968;DHT22;10145;49.152;9.282;2023-02-28T14:11:59;7.30;91.00
19968;DHT22;10145;49.152;9.282;2023-02-28T14:17:14;6.80;90.90
19968;DHT22;10145;49.152;9.282;2023-02-28T14:19:44;7.20;91.00
19968;DHT22;10145;49.152;9.282;2023-02-28T14:33:54;6.70;90.90
19968;DHT22;10145;49.152;9.282;2023-02-28T14:36:27;6.90;90.80
19968;DHT22;10145;49.152;9.282;2023-02-28T14:39:05;6.80;90.70
19968;DHT22;10145;49.152;9.282;2023-02-28T14:41:37;6.90;90.80
19968;DHT22;10145;49.152;9.282;2023-02-28T14:46:45;6.80;90.50
19968;DHT22;10145;49.152;9.282;2023-02-28T14:51:44;6.80;90.30
19968;DHT22;10145;49.152;9.282;2023-02-28T14:54:15;7.00;90.40
19968;DHT22;10145;49.152;9.282;2023-02-28T14:56:42;7.00;90.90
19968;DHT22;10145;49.152;9.282;2023-02-28T15:01:50;7.00;90.10
19968;DHT22;10145;49.152;9.282;2023-02-28T15:04:26;7.00;90.30
19968;DHT22;10145;49.152;9.282;2023-02-28T15:07:14;7.10;89.90
19968;DHT22;10145;49.152;9.282;2023-02-28T15:09:40;6.80;90.30
19968;DHT22;10145;49.152;9.282;2023-02-28T15:12:06;6.70;90.40
19968;DHT22;10145;49.152;9.282;2023-02-28T15:14:34;6.60;90.80
19968;DHT22;10145;49.152;9.282;2023-02-28T15:17:09;6.90;90.50
19968;DHT22;10145;49.152;9.282;2023-02-28T15:19:40;7.00;90.20
19968;DHT22;10145;49.152;9.282;2023-02-28T15:22:20;7.00;89.70
19968;DHT22;10145;49.152;9.282;2023-02-28T15:24:50;7.00;89.10
19968;DHT22;10145;49.152;9.282;2023-02-28T15:27:30;6.90;90.00
19968;DHT22;10145;49.152;9.282;2023-02-28T15:29:59;6.90;90.30
19968;DHT22;10145;49.152;9.282;2023-02-28T15:34:53;8.00;88.50
19968;DHT22;10145;49.152;9.282;2023-02-28T15:37:40;9.20;85.70
19968;DHT22;10145;49.152;9.282;2023-02-28T15:40:38;9.70;82.00
19968;DHT22;10145;49.152;9.282;2023-02-28T15:43:17;10.30;80.80
19968;DHT22;10145;49.152;9.282;2023-02-28T15:45:47;10.40;80.10
19968;DHT22;10145;49.152;9.282;2023-02-28T15:53:46;10.00;78.20
19968;DHT22;10145;49.152;9.282;2023-02-28T15:56:38;9.60;79.40
19968;DHT22;10145;49.152;9.282;2023-02-28T15:59:27;8.90;82.20
19968;DHT22;10145;49.152;9.282;2023-02-28T16:02:13;8.80;82.10
19968;DHT22;10145;49.152;9.282;2023-02-28T16:05:17;8.30;82.70
19968;DHT22;10145;49.152;9.282;2023-02-28T16:07:43;7.70;83.90
19968;DHT22;10145;49.152;9.282;2023-02-28T16:10:11;7.10;86.10
19968;DHT22;10145;49.152;9.282;2023-02-28T16:12:39;6.50;87.90
19968;DHT22;10145;49.152;9.282;2023-02-28T16:15:25;6.10;90.00
19968;DHT22;10145;49.152;9.282;2023-02-28T16:17:52;5.70;90.40
19968;DHT22;10145;49.152;9.282;2023-02-28T16:20:44;5.50;90.70
19968;DHT22;10145;49.152;9.282;2023-02-28T16:23:09;5.30;91.60
19968;DHT22;10145;49.152;9.282;2023-02-28T16:25:44;5.20;92.00
19968;DHT22;10145;49.152;9.282;2023-02-28T16:28:25;5.00;92.00
19968;DHT22;10145;49.152;9.282;2023-02-28T16:30:52;5.00;92.10
19968;DHT22;10145;49.152;9.282;2023-02-28T16:33:18;4.90;92.10
19968;DHT22;10145;49.152;9.282;2023-02-28T16:35:44;4.80;92.20
19968;DHT22;10145;49.152;9.282;2023-02-28T16:38:09;4.70;92.50
19968;DHT22;10145;49.152;9.282;2023-02-28T16:40:36;4.60;92.90
19968;DHT22;10145;49.152;9.282;2023-02-28T16:43:05;4.50;93.30
19968;DHT22;10145;49.152;9.282;2023-02-28T16:45:32;4.40;93.50
19968;DHT22;10145;49.152;9.282;2023-02-28T16:47:59;4.20;93.70
19968;DHT22;10145;49.152;9.282;2023-02-28T16:50:28;4.10;94.20
19968;DHT22;10145;49.152;9.282;2023-02-28T16:52:54;4.00;94.90
19968;DHT22;10145;49.152;9.282;2023-02-28T16:55:21;3.80;94.90
19968;DHT22;10145;49.152;9.282;2023-02-28T16:57:51;3.70;95.20
19968;DHT22;10145;49.152;9.282;2023-02-28T17:00:17;3.50;95.80
19968;DHT22;10145;49.152;9.282;2023-02-28T17:02:43;3.30;96.10
19968;DHT22;10145;49.152;9.282;2023-02-28T17:05:11;3.20;96.70
19968;DHT22;10145;49.152;9.282;2023-02-28T17:07:37;3.10;96.80
19968;DHT22;10145;49.152;9.282;2023-02-28T17:10:08;3.00;97.20
19968;DHT22;10145;49.152;9.282;2023-02-28T17:12:34;3.00;97.80
19968;DHT22;10145;49.152;9.282;2023-02-28T17:15:00;2.90;97.90
19968;DHT22;10145;49.152;9.282;2023-02-28T17:17:25;2.90;97.80
19968;DHT22;10145;49.152;9.282;2023-02-28T17:19:51;2.80;97.90
19968;DHT22;10145;49.152;9.282;2023-02-28T17:22:17;2.60;98.10
19968;DHT22;10145;49.152;9.282;2023-02-28T17:24:42;2.50;98.60
19968;DHT22;10145;49.152;9.282;2023-02-28T17:27:11;2.40;99.10
19968;DHT22;10145;49.152;9.282;2023-02-28T17:29:37;2.30;99.10
19968;DHT22;10145;49.152;9.282;2023-02-28T17:32:03;2.20;99.00
19968;DHT22;10145;49.152;9.282;2023-02-28T17:34:29;2.10;99.90
19968;DHT22;10145;49.152;9.282;2023-02-28T17:36:54;2.10;99.80
19968;DHT22;10145;49.152;9.282;2023-02-28T17:39:20;2.10;99.90
19968;DHT22;10145;49.152;9.282;2023-02-28T17:41:54;2.00;99.90
19968;DHT22;10145;49.152;9.282;2023-02-28T17:44:21;1.90;99.90
19968;DHT22;10145;49.152;9.282;2023-02-28T17:46:47;1.90;99.90
19968;DHT22;10145;49.152;9.282;2023-02-28T17:49:14;1.80;99.90
19968;DHT22;10145;49.152;9.282;2023-02-28T17:51:40;1.90;99.90
19968;DHT22;10145;49.152;9.282;2023-02-28T17:54:06;1.90;99.90
19968;DHT22;10145;49.152;9.282;2023-02-28T17:56:32;1.90;99.90
19968;DHT22;10145;49.152;9.282;2023-02-28T17:58:57;1.80;99.90
19968;DHT22;10145;49.152;9.282;2023-02-28T18:01:24;1.80;99.90
19968;DHT22;10145;49.152;9.282;2023-02-28T18:03:51;1.80;99.90
19968;DHT22;10145;49.152;9.282;2023-02-28T18:06:25;1.80;99.90
19968;DHT22;10145;49.152;9.282;2023-02-28T18:08:53;1.60;99.90